Time;durP1;ratioP1;P1;durP2;ratioP2;P2;SDS_P1;SDS_P2;PMS_P1;PMS_P2;Temp;Humidity;BMP_temperature;BMP_pressure;BME280_temperature;BME280_humidity;BME280_pressure;Samples;Min_cycle;Max_cycle;Signal;HPM_P1;HPM_P2
2021/05/08 00:02:11;;;;;;;29.40;11.93;;;;;;;17.93;37.19;101148.50;5053423;28;20454;-49
2021/05/08 00:04:38;;;;;;;26.50;9.43;;;;;;;17.98;37.40;101145.94;5054154;28;20443;-49
2021/05/08 00:07:04;;;;;;;15.53;6.67;;;;;;;18.13;37.09;101153.19;5053501;28;20566;-49
2021/05/08 00:09:31;;;;;;;14.40;6.40;;;;;;;17.62;37.68;101147.94;5054492;28;20430;-50
2021/05/08 00:11:58;;;;;;;20.90;8.73;;;;;;;17.81;37.37;101153.50;5053208;28;20946;-50
2021/05/08 00:14:26;;;;;;;31.33;12.83;;;;;;;18.31;36.70;101151.75;5054649;28;20430;-49
2021/05/08 00:16:53;;;;;;;16.40;6.00;;;;;;;18.02;36.78;101150.38;5053392;28;20935;-49
2021/05/08 00:19:19;;;;;;;24.17;8.00;;;;;;;17.91;37.17;101154.53;5054374;28;20748;-47
2021/05/08 00:21:46;;;;;;;12.00;5.67;;;;;;;18.17;36.98;101157.63;5055184;28;20520;-47
2021/05/08 00:24:13;;;;;;;24.23;10.33;;;;;;;18.15;37.14;101150.63;5058277;28;20470;-50
2021/05/08 00:26:39;;;;;;;20.07;8.10;;;;;;;18.06;37.05;101153.94;5056230;28;20488;-51
2021/05/08 00:29:06;;;;;;;35.43;15.80;;;;;;;18.56;36.20;101157.34;5057087;28;20455;-49
2021/05/08 00:31:33;;;;;;;17.60;6.50;;;;;;;18.15;36.84;101153.22;5055947;28;20545;-48
2021/05/08 00:34:00;;;;;;;22.30;8.43;;;;;;;18.42;36.32;101155.41;5057742;28;20517;-48
2021/05/08 00:36:27;;;;;;;18.40;8.63;;;;;;;18.31;36.62;101151.75;5056557;28;20446;-50
2021/05/08 00:38:53;;;;;;;14.40;6.77;;;;;;;17.76;37.32;101160.34;5057766;28;20495;-49
2021/05/08 00:41:20;;;;;;;10.83;5.23;;;;;;;17.80;37.48;101159.56;5055903;28;20575;-53
2021/05/08 00:43:46;;;;;;;15.23;6.50;;;;;;;18.00;36.76;101157.28;5057278;28;20550;-51
2021/05/08 00:46:14;;;;;;;23.93;7.60;;;;;;;18.30;36.74;101152.59;5055997;28;20449;-52
2021/05/08 00:48:41;;;;;;;38.07;15.53;;;;;;;18.62;35.65;101150.47;5057417;28;20559;-49
2021/05/08 00:51:08;;;;;;;35.10;14.67;;;;;;;18.88;35.54;101143.88;5056122;28;21004;-50
2021/05/08 00:53:34;;;;;;;42.67;19.20;;;;;;;18.86;35.38;101145.56;5057459;28;20434;-51
2021/05/08 00:56:01;;;;;;;25.90;10.43;;;;;;;18.43;35.38;101153.66;5056448;28;20437;-48
2021/05/08 00:58:27;;;;;;;25.37;10.63;;;;;;;18.91;35.33;101151.75;5057580;28;20491;-48
2021/05/08 01:00:55;;;;;;;24.20;5.73;;;;;;;18.33;35.76;101147.41;5055915;28;20767;-48
2021/05/08 01:03:22;;;;;;;54.57;21.67;;;;;;;19.21;35.10;101142.56;5057417;28;20798;-47
2021/05/08 01:05:50;;;;;;;26.40;8.10;;;;;;;19.13;34.31;101142.47;5057536;28;20466;-48
2021/05/08 01:08:17;;;;;;;9.77;5.20;;;;;;;18.34;36.14;101149.16;5057200;28;20466;-50
2021/05/08 01:10:44;;;;;;;18.73;5.90;;;;;;;18.26;36.40;101151.69;5057237;28;20451;-53
2021/05/08 01:13:11;;;;;;;25.90;11.27;;;;;;;18.29;36.18;101153.44;5055812;28;20488;-48
2021/05/08 01:15:37;;;;;;;16.97;6.67;;;;;;;18.17;35.81;101152.41;5057393;28;20456;-49
2021/05/08 01:18:05;;;;;;;21.53;6.60;;;;;;;17.76;37.18;101148.19;5056147;28;20461;-49
2021/05/08 01:20:31;;;;;;;13.30;5.27;;;;;;;17.17;38.29;101159.22;5056962;28;20438;-51
2021/05/08 01:22:59;;;;;;;10.30;4.83;;;;;;;17.35;38.06;101169.13;5055848;28;20458;-51
2021/05/08 01:25:27;;;;;;;21.83;7.80;;;;;;;17.65;37.28;101166.22;5057208;28;20444;-50
2021/05/08 01:27:55;;;;;;;35.20;9.83;;;;;;;17.37;37.80;101152.66;5053167;28;20563;-48
2021/05/08 01:30:23;;;;;;;32.03;11.80;;;;;;;17.63;37.33;101157.50;5057048;28;20537;-47
2021/05/08 01:32:50;;;;;;;23.13;8.87;;;;;;;17.62;37.52;101152.25;5054730;28;20480;-48
2021/05/08 01:35:17;;;;;;;24.23;11.10;;;;;;;17.18;37.73;101164.44;5057049;28;20471;-50
2021/05/08 01:37:44;;;;;;;18.73;5.60;;;;;;;17.10;37.94;101163.41;5055861;28;20486;-47
2021/05/08 01:40:14;;;;;;;15.60;6.90;;;;;;;17.11;38.43;101166.06;5056663;28;20462;-49
2021/05/08 01:42:42;;;;;;;12.70;5.50;;;;;;;17.02;38.51;101160.63;5055709;28;20455;-48
2021/05/08 01:45:13;;;;;;;13.13;5.07;;;;;;;16.93;38.98;101165.63;5057002;28;20434;-50
2021/05/08 01:47:40;;;;;;;18.13;5.30;;;;;;;17.43;37.47;101167.53;5055542;28;20492;-49
2021/05/08 01:50:10;;;;;;;16.07;5.97;;;;;;;16.50;39.27;101173.34;5056645;28;20470;-47
2021/05/08 01:52:37;;;;;;;27.13;11.70;;;;;;;17.16;38.66;101167.88;5055345;28;20479;-49
2021/05/08 01:55:05;;;;;;;24.30;8.50;;;;;;;17.02;38.68;101163.22;5056894;28;20431;-50
2021/05/08 01:57:38;;;;;;;20.53;8.83;;;;;;;17.47;38.10;101163.25;5055221;28;20529;-47
2021/05/08 02:00:11;;;;;;;31.77;11.00;;;;;;;17.24;38.21;101161.09;5055946;28;20435;-49
2021/05/08 02:02:37;;;;;;;26.77;8.87;;;;;;;16.83;39.11;101161.94;5055291;28;20475;-49
2021/05/08 02:05:06;;;;;;;21.53;8.50;;;;;;;16.96;38.77;101163.97;5056510;28;20461;-50
2021/05/08 02:07:33;;;;;;;13.97;6.30;;;;;;;17.18;38.56;101163.56;5055508;28;20457;-48
2021/05/08 02:10:00;;;;;;;24.33;8.17;;;;;;;17.73;37.00;101155.94;5056368;28;20767;-47
2021/05/08 02:12:30;;;;;;;22.97;9.93;;;;;;;17.60;37.78;101160.06;5055168;28;20447;-49
2021/05/08 02:14:58;;;;;;;21.60;7.53;;;;;;;17.06;38.16;101159.84;5056454;28;20456;-50
2021/05/08 02:17:24;;;;;;;24.60;10.27;;;;;;;17.11;38.38;101160.84;5054997;28;20537;-52
2021/05/08 02:19:51;;;;;;;18.63;7.40;;;;;;;17.21;38.86;101163.63;5055542;28;20860;-49
2021/05/08 02:22:18;;;;;;;21.17;8.20;;;;;;;17.18;38.61;101166.19;5055019;28;20783;-51
2021/05/08 02:24:45;;;;;;;26.40;12.00;;;;;;;16.94;38.99;101163.06;5056278;28;20868;-49
2021/05/08 02:27:12;;;;;;;21.23;9.30;;;;;;;16.98;38.82;101164.00;5054715;28;20454;-48
2021/05/08 02:29:38;;;;;;;12.40;6.13;;;;;;;16.79;39.26;101158.38;5055806;28;20449;-52
2021/05/08 02:32:07;;;;;;;18.67;7.23;;;;;;;16.74;39.60;101165.22;5054598;28;20460;-49
2021/05/08 02:34:33;;;;;;;33.43;12.83;;;;;;;17.13;38.32;101163.47;5055913;28;20784;-49
2021/05/08 02:37:00;;;;;;;29.73;8.67;;;;;;;16.90;38.70;101161.22;5054653;28;20958;-47
2021/05/08 02:39:27;;;;;;;27.73;9.87;;;;;;;17.37;38.34;101163.09;5055934;28;20738;-49
2021/05/08 02:41:53;;;;;;;18.40;8.17;;;;;;;16.77;38.90;101167.00;5054350;28;20572;-47
2021/05/08 02:44:20;;;;;;;39.07;12.57;;;;;;;17.36;38.10;101168.28;5054972;28;20525;-47
2021/05/08 02:46:47;;;;;;;20.63;10.13;;;;;;;17.24;38.01;101171.53;5054393;28;20503;-49
2021/05/08 02:49:14;;;;;;;26.53;12.30;;;;;;;17.53;37.97;101168.59;5055542;28;20526;-48
2021/05/08 02:51:41;;;;;;;21.43;6.80;;;;;;;16.77;38.99;101165.25;5054329;28;20545;-49
2021/05/08 02:54:07;;;;;;;16.10;7.93;;;;;;;16.77;39.32;101175.69;5055846;28;20459;-47
2021/05/08 02:56:34;;;;;;;37.80;10.17;;;;;;;17.54;37.68;101173.00;5054547;28;20452;-48
2021/05/08 02:59:01;;;;;;;24.33;11.00;;;;;;;17.55;37.29;101178.22;5055511;28;20466;-49
2021/05/08 03:01:27;;;;;;;26.87;10.20;;;;;;;17.61;37.43;101174.88;5054035;28;20917;-49
2021/05/08 03:03:54;;;;;;;26.70;12.53;;;;;;;17.33;37.87;101165.63;5055786;28;20521;-47
2021/05/08 03:06:21;;;;;;;23.03;7.80;;;;;;;16.83;38.86;101180.16;5054701;28;20592;-47
2021/05/08 03:08:48;;;;;;;24.00;7.97;;;;;;;16.66;39.19;101183.25;5055467;28;20442;-48
2021/05/08 03:11:15;;;;;;;22.90;11.50;;;;;;;17.08;39.58;101173.78;5053847;28;20562;-52
2021/05/08 03:13:42;;;;;;;15.93;7.43;;;;;;;16.76;39.00;101173.06;5055277;28;20534;-49
2021/05/08 03:16:09;;;;;;;16.17;7.37;;;;;;;16.76;39.04;101178.28;5054530;28;20554;-48
2021/05/08 03:18:35;;;;;;;14.53;6.73;;;;;;;16.85;38.69;101168.03;5055382;28;20433;-47
2021/05/08 03:21:02;;;;;;;46.00;19.13;;;;;;;16.97;38.41;101177.88;5053959;28;20481;-48
2021/05/08 03:23:30;;;;;;;23.17;9.90;;;;;;;17.05;37.96;101171.13;5055016;28;20930;-47
2021/05/08 03:25:56;;;;;;;27.70;10.20;;;;;;;16.59;39.00;101170.94;5053908;28;20458;-49
2021/05/08 03:28:23;;;;;;;23.87;8.10;;;;;;;16.42;39.39;101178.34;5055064;28;20491;-52
2021/05/08 03:30:49;;;;;;;16.70;7.87;;;;;;;16.68;38.80;101175.47;5054936;28;20441;-49
2021/05/08 03:33:16;;;;;;;25.87;9.07;;;;;;;17.53;37.53;101166.88;5054794;28;20802;-48
2021/05/08 03:35:43;;;;;;;38.37;17.60;;;;;;;18.05;36.41;101162.59;5055207;28;20441;-47
2021/05/08 03:38:09;;;;;;;33.80;14.50;;;;;;;18.18;36.23;101163.72;5053932;28;20559;-49
2021/05/08 03:40:37;;;;;;;20.70;7.97;;;;;;;18.04;36.16;101164.31;5054927;28;20430;-48
2021/05/08 03:43:03;;;;;;;25.47;10.40;;;;;;;17.79;37.16;101165.63;5053699;28;20554;-48
2021/05/08 03:45:31;;;;;;;38.77;14.73;;;;;;;18.08;36.58;101167.91;5055233;28;20491;-49
2021/05/08 03:48:02;;;;;;;31.90;12.40;;;;;;;18.16;36.47;101166.28;5053735;28;20486;-49
2021/05/08 03:50:29;;;;;;;18.70;9.80;;;;;;;17.79;36.96;101165.63;5054813;28;20894;-49
2021/05/08 03:52:56;;;;;;;21.70;9.83;;;;;;;17.92;36.53;101166.72;5054394;28;20476;-48
2021/05/08 03:55:22;;;;;;;30.47;10.60;;;;;;;17.37;37.55;101168.31;5054747;28;20452;-53
2021/05/08 03:57:50;;;;;;;27.87;12.00;;;;;;;17.16;38.47;101170.50;5058017;28;20460;-49
2021/05/08 04:00:17;;;;;;;21.83;8.90;;;;;;;17.25;38.04;101170.66;5058804;28;20748;-50
2021/05/08 04:02:44;;;;;;;28.77;12.17;;;;;;;17.07;38.27;101174.66;5057825;28;20457;-51
2021/05/08 04:05:11;;;;;;;25.00;12.00;;;;;;;17.35;37.73;101174.34;5058864;28;20525;-51
2021/05/08 04:07:37;;;;;;;26.93;11.67;;;;;;;17.23;38.20;101174.97;5057449;28;20574;-52
2021/05/08 04:10:05;;;;;;;15.10;7.47;;;;;;;16.82;38.99;101179.28;5057892;28;20431;-49
2021/05/08 04:12:31;;;;;;;26.00;12.50;;;;;;;17.80;37.46;101181.31;5057354;28;20912;-48
2021/05/08 04:14:58;;;;;;;34.03;13.87;;;;;;;17.30;38.27;101182.09;5058817;28;20738;-47
2021/05/08 04:17:25;;;;;;;25.90;10.47;;;;;;;17.63;37.33;101183.59;5057283;28;20459;-51
2021/05/08 04:19:53;;;;;;;28.73;12.50;;;;;;;17.61;37.27;101181.81;5058304;28;20477;-48
2021/05/08 04:22:19;;;;;;;15.50;8.30;;;;;;;16.94;37.77;101189.13;5056743;28;20446;-51
2021/05/08 04:24:46;;;;;;;27.33;10.90;;;;;;;17.21;37.71;101189.69;5058414;28;20435;-50
2021/05/08 04:27:13;;;;;;;23.97;9.67;;;;;;;17.10;38.20;101190.38;5057305;28;20891;-47
2021/05/08 04:29:40;;;;;;;16.47;7.70;;;;;;;17.23;37.61;101194.09;5058118;28;20478;-51
2021/05/08 04:32:07;;;;;;;17.43;6.47;;;;;;;16.60;39.02;101189.22;5057052;28;20461;-48
2021/05/08 04:34:34;;;;;;;21.63;9.10;;;;;;;17.48;37.88;101192.00;5058164;28;20928;-48
2021/05/08 04:37:04;;;;;;;34.93;11.00;;;;;;;17.15;38.19;101193.06;5056753;28;20457;-47
2021/05/08 04:39:30;;;;;;;26.53;13.17;;;;;;;17.72;37.01;101189.84;5058408;28;20546;-49
2021/05/08 04:41:57;;;;;;;23.00;10.33;;;;;;;17.78;37.56;101200.38;5056676;28;20567;-51
2021/05/08 04:44:25;;;;;;;19.83;8.20;;;;;;;17.37;38.16;101199.59;5058190;28;20470;-50
2021/05/08 04:46:51;;;;;;;31.53;14.53;;;;;;;18.40;36.22;101201.50;5056669;28;20542;-49
2021/05/08 04:49:19;;;;;;;20.60;10.77;;;;;;;17.83;36.77;101203.97;5057910;28;20529;-49
2021/05/08 04:51:46;;;;;;;21.80;9.30;;;;;;;17.46;38.18;101201.53;5056131;28;20841;-47
2021/05/08 04:54:12;;;;;;;21.83;8.83;;;;;;;17.63;37.56;101209.69;5058080;28;20471;-49
2021/05/08 04:56:39;;;;;;;16.73;7.83;;;;;;;16.97;38.57;101215.22;5056730;28;20502;-47
2021/05/08 04:59:05;;;;;;;21.20;9.93;;;;;;;17.52;37.95;101205.97;5057963;28;20772;-49
2021/05/08 05:01:32;;;;;;;19.43;7.53;;;;;;;17.45;37.73;101212.81;5056014;28;20459;-48
2021/05/08 05:03:59;;;;;;;37.00;12.97;;;;;;;18.56;36.67;101204.38;5057734;28;20431;-48
2021/05/08 05:06:26;;;;;;;21.47;8.77;;;;;;;18.41;36.89;101213.72;5056409;28;20451;-49
2021/05/08 05:08:52;;;;;;;11.40;6.00;;;;;;;16.91;39.42;101214.22;5056799;28;20460;-49
2021/05/08 05:11:21;;;;;;;21.57;8.47;;;;;;;17.26;39.10;101219.34;5056220;28;20548;-50
2021/05/08 05:13:48;;;;;;;24.07;8.20;;;;;;;17.56;38.32;101210.41;5057641;28;20439;-50
2021/05/08 05:16:15;;;;;;;19.10;9.90;;;;;;;18.08;37.60;101209.66;5056347;28;20457;-49
2021/05/08 05:18:41;;;;;;;22.77;8.57;;;;;;;17.19;39.01;101213.16;5057466;28;20466;-52
2021/05/08 05:21:08;;;;;;;23.77;8.40;;;;;;;17.85;38.15;101210.13;5056052;28;20437;-50
2021/05/08 05:23:35;;;;;;;27.60;10.80;;;;;;;17.73;38.62;101207.28;5057165;28;20476;-51
2021/05/08 05:26:02;;;;;;;24.73;9.17;;;;;;;17.70;38.47;101220.25;5056393;28;20459;-48
2021/05/08 05:28:30;;;;;;;22.00;8.47;;;;;;;18.14;37.96;101215.00;5057257;28;20512;-51
2021/05/08 05:30:57;;;;;;;20.73;10.07;;;;;;;18.37;37.48;101217.16;5055673;28;20459;-51
2021/05/08 05:33:24;;;;;;;18.00;8.80;;;;;;;18.10;38.01;101223.63;5056591;28;20476;-51
2021/05/08 05:35:52;;;;;;;19.47;6.70;;;;;;;17.79;38.57;101223.91;5056061;28;20547;-48
2021/05/08 05:38:19;;;;;;;18.90;7.43;;;;;;;17.68;38.72;101228.94;5057157;28;20557;-49
2021/05/08 05:40:46;;;;;;;23.20;8.37;;;;;;;18.31;37.19;101236.19;5056676;28;20435;-50
2021/05/08 05:43:13;;;;;;;17.60;7.43;;;;;;;17.11;39.62;101233.81;5055652;28;20483;-50
2021/05/08 05:45:40;;;;;;;19.10;7.43;;;;;;;17.94;37.87;101236.38;5056847;28;20451;-50
2021/05/08 05:48:07;;;;;;;17.37;8.57;;;;;;;18.90;36.66;101236.25;5055818;28;20476;-53
2021/05/08 05:50:36;;;;;;;16.40;6.57;;;;;;;18.31;37.76;101243.16;5056743;28;20480;-50
2021/05/08 05:53:03;;;;;;;14.40;6.53;;;;;;;19.10;36.57;101241.81;5055354;28;20479;-48
2021/05/08 05:55:30;;;;;;;26.83;8.87;;;;;;;19.11;36.01;101247.91;5056760;28;20434;-48
2021/05/08 05:57:57;;;;;;;23.73;8.90;;;;;;;18.99;36.52;101244.25;5054926;28;20845;-50
2021/05/08 06:00:24;;;;;;;26.03;12.17;;;;;;;19.20;35.96;101242.81;5056360;28;20430;-47
2021/05/08 06:02:51;;;;;;;20.40;8.63;;;;;;;19.52;35.41;101234.50;5055307;28;20546;-48
2021/05/08 06:05:18;;;;;;;15.50;6.87;;;;;;;19.13;35.92;101246.22;5056578;28;20430;-48
2021/05/08 06:07:44;;;;;;;17.27;7.03;;;;;;;19.59;35.37;101239.81;5047635;28;20480;-47
2021/05/08 06:10:13;;;;;;;17.10;6.53;;;;;;;19.54;35.34;101238.00;5056338;28;20451;-48
2021/05/08 06:12:40;;;;;;;30.03;10.20;;;;;;;19.53;35.73;101244.09;5055188;28;20483;-48
2021/05/08 06:15:09;;;;;;;14.50;6.00;;;;;;;19.52;35.00;101236.22;5056278;28;20460;-50
2021/05/08 06:17:36;;;;;;;17.07;6.23;;;;;;;19.78;34.92;101235.66;5053985;28;20468;-47
2021/05/08 06:20:05;;;;;;;15.00;5.97;;;;;;;19.46;35.57;101234.41;5055691;28;20777;-50
2021/05/08 06:22:32;;;;;;;11.13;5.97;;;;;;;19.90;34.48;101234.91;5053594;28;20495;-49
2021/05/08 06:24:58;;;;;;;18.40;7.60;;;;;;;18.66;36.54;101240.22;5055983;28;20540;-50
2021/05/08 06:27:26;;;;;;;47.47;18.77;;;;;;;19.32;35.86;101241.22;5054690;28;20790;-47
2021/05/08 06:29:53;;;;;;;13.10;5.37;;;;;;;19.49;35.09;101250.16;5055709;28;20825;-48
2021/05/08 06:32:21;;;;;;;25.90;8.97;;;;;;;19.19;35.41;101256.75;5054347;28;20454;-47
2021/05/08 06:34:49;;;;;;;13.83;7.37;;;;;;;19.55;34.92;101250.22;5056007;28;20460;-49
2021/05/08 06:37:16;;;;;;;12.43;4.87;;;;;;;19.44;35.04;101246.63;5054774;28;20487;-50
2021/05/08 06:39:42;;;;;;;12.47;4.27;;;;;;;19.39;35.22;101250.91;5055209;28;20933;-51
2021/05/08 06:42:09;;;;;;;15.13;4.30;;;;;;;19.31;35.51;101258.66;5054429;28;20484;-48
2021/05/08 06:44:35;;;;;;;17.40;6.30;;;;;;;19.50;35.18;101262.41;5056036;28;20434;-50
2021/05/08 06:47:02;;;;;;;12.30;4.50;;;;;;;19.87;34.76;101261.06;5054595;28;20459;-51
2021/05/08 06:49:29;;;;;;;38.10;12.67;;;;;;;20.40;33.86;101265.09;5055508;28;20823;-48
2021/05/08 06:51:56;;;;;;;13.70;4.63;;;;;;;20.02;34.05;101261.28;5054209;28;20482;-49
2021/05/08 06:54:27;;;;;;;35.07;9.03;;;;;;;19.99;34.33;101257.75;5055523;28;20960;-48
2021/05/08 06:56:54;;;;;;;13.17;4.00;;;;;;;19.33;35.09;101263.91;5054083;28;20484;-51
2021/05/08 06:59:20;;;;;;;14.10;5.10;;;;;;;19.74;34.32;101260.91;5055540;28;20911;-49
2021/05/08 07:01:47;;;;;;;10.10;3.27;;;;;;;19.03;35.82;101255.66;5053190;28;20944;-51
2021/05/08 07:04:13;;;;;;;10.43;4.50;;;;;;;19.50;35.13;101257.16;5055490;28;20927;-52
2021/05/08 07:06:41;;;;;;;11.17;3.73;;;;;;;19.97;33.81;101262.97;5054256;28;20486;-48
2021/05/08 07:09:07;;;;;;;13.40;3.97;;;;;;;20.54;33.36;101259.09;5055466;28;20488;-47
2021/05/08 07:11:34;;;;;;;12.13;5.00;;;;;;;20.83;32.66;101256.72;5053555;28;20575;-53
2021/05/08 07:14:01;;;;;;;17.07;5.23;;;;;;;20.55;32.90;101267.00;5055513;28;20453;-47
2021/05/08 07:16:27;;;;;;;21.63;4.63;;;;;;;21.04;32.40;101260.38;5054200;28;20483;-49
2021/05/08 07:18:54;;;;;;;12.33;3.50;;;;;;;19.87;33.04;101261.94;5055373;28;20513;-48
2021/05/08 07:21:21;;;;;;;16.07;4.33;;;;;;;20.62;32.17;101260.06;5053531;28;20482;-47
2021/05/08 07:23:48;;;;;;;12.80;5.90;;;;;;;22.14;30.58;101254.69;5055022;28;20460;-47
2021/05/08 07:26:15;;;;;;;16.77;5.80;;;;;;;21.71;30.79;101259.00;5054209;28;20560;-49
2021/05/08 07:28:42;;;;;;;10.90;3.53;;;;;;;19.97;32.80;101265.56;5055446;28;20458;-48
2021/05/08 07:31:08;;;;;;;10.07;2.70;;;;;;;20.46;32.80;101262.53;5051470;28;20494;-50
2021/05/08 07:33:35;;;;;;;10.70;3.33;;;;;;;19.71;31.34;101255.66;5058567;28;20537;-49
2021/05/08 07:36:02;;;;;;;13.13;3.20;;;;;;;21.01;30.98;101265.59;5057361;28;20463;-49
2021/05/08 07:38:28;;;;;;;13.10;3.50;;;;;;;20.51;32.02;101266.09;5058623;28;20860;-47
2021/05/08 07:40:56;;;;;;;11.70;5.57;;;;;;;20.69;31.39;101268.84;5057585;28;20552;-47
2021/05/08 07:43:22;;;;;;;13.30;4.30;;;;;;;21.28;30.08;101256.16;5058480;28;20488;-54
2021/05/08 07:45:50;;;;;;;8.80;4.40;;;;;;;21.09;30.41;101258.69;5058651;28;20491;-54
2021/05/08 07:48:17;;;;;;;8.67;2.60;;;;;;;20.93;31.65;101259.44;5058163;28;20463;-52
2021/05/08 07:50:44;;;;;;;7.90;3.10;;;;;;;20.95;30.77;101255.97;5055541;28;20617;-53
2021/05/08 07:53:11;;;;;;;10.37;2.87;;;;;;;21.61;29.69;101249.28;5056997;28;20530;-51
2021/05/08 07:55:37;;;;;;;14.10;3.20;;;;;;;21.22;29.60;101264.00;5058321;28;20889;-52
2021/05/08 07:58:06;;;;;;;7.23;3.20;;;;;;;21.04;30.75;101258.63;5054257;28;20785;-54
2021/05/08 08:00:33;;;;;;;11.87;3.80;;;;;;;21.49;30.89;101258.00;5058163;28;20440;-52
2021/05/08 08:03:00;;;;;;;8.40;2.93;;;;;;;20.98;29.89;101253.34;5056975;28;20818;-51
2021/05/08 08:05:28;;;;;;;11.93;3.43;;;;;;;21.49;29.81;101260.63;5057576;28;20458;-52
2021/05/08 08:07:55;;;;;;;9.50;3.10;;;;;;;21.77;29.15;101252.88;5055157;28;20470;-53
2021/05/08 08:10:22;;;;;;;26.57;12.00;;;;;;;22.43;28.42;101248.59;5057888;28;20459;-52
2021/05/08 08:12:49;;;;;;;12.53;4.53;;;;;;;21.20;29.54;101240.38;5077620;28;20487;-54
2021/05/08 08:15:17;;;;;;;12.70;5.10;;;;;;;21.82;29.14;101245.91;5058578;28;20554;-52
2021/05/08 08:17:46;;;;;;;7.33;2.80;;;;;;;21.27;29.69;101246.53;5052600;28;20517;-52
2021/05/08 08:20:14;;;;;;;12.73;3.03;;;;;;;22.09;27.84;101236.31;5057564;28;20896;-50
2021/05/08 08:22:44;;;;;;;8.60;2.90;;;;;;;21.65;28.52;101232.69;5056557;28;20537;-51
2021/05/08 08:25:11;;;;;;;4.63;2.30;;;;;;;20.68;29.58;101228.66;5057898;28;20466;-52
2021/05/08 08:27:40;;;;;;;12.00;2.77;;;;;;;20.82;29.09;101231.34;5054317;28;20779;-52
2021/05/08 08:30:08;;;;;;;7.00;2.13;;;;;;;20.99;29.39;101241.13;5055072;28;20510;-50
2021/05/08 08:32:36;;;;;;;8.50;2.80;;;;;;;22.32;27.31;101234.56;5056092;28;20765;-52
2021/05/08 08:35:03;;;;;;;27.30;7.40;;;;;;;22.53;26.57;101231.09;5057886;28;20459;-54
2021/05/08 08:37:30;;;;;;;15.40;6.90;;;;;;;22.65;26.50;101241.63;5055690;28;20537;-53
2021/05/08 08:39:57;;;;;;;10.07;3.53;;;;;;;22.85;26.01;101239.81;5057130;28;20533;-54
2021/05/08 08:42:24;;;;;;;15.97;5.70;;;;;;;22.06;27.72;101243.31;5056240;28;20475;-54
2021/05/08 08:44:52;;;;;;;12.10;4.90;;;;;;;22.82;26.66;101240.72;5057646;28;20546;-51
2021/05/08 08:47:29;;;;;;;8.90;2.77;;;;;;;21.94;27.78;101239.78;5056358;28;20948;-50
2021/05/08 08:50:06;;;;;;;10.13;2.87;;;;;;;22.15;27.25;101240.69;5056724;28;20459;-52
2021/05/08 08:52:33;;;;;;;35.87;13.93;;;;;;;21.78;27.14;101243.25;5056601;28;20532;-52
2021/05/08 08:55:00;;;;;;;16.40;5.43;;;;;;;21.56;27.30;101243.16;5057430;28;20461;-49
2021/05/08 08:57:30;;;;;;;40.73;19.10;;;;;;;23.45;25.31;101236.16;5055916;28;20988;-53
2021/05/08 08:59:58;;;;;;;18.10;7.27;;;;;;;23.85;24.65;101235.09;5057094;28;20527;-49
2021/05/08 09:02:26;;;;;;;38.57;18.37;;;;;;;24.71;24.02;101231.81;5053266;28;20483;-54
2021/05/08 09:04:58;;;;;;;17.80;6.10;;;;;;;22.59;25.74;101233.72;5057425;28;20487;-51
2021/05/08 09:07:28;;;;;;;19.57;7.87;;;;;;;22.42;25.17;101232.81;5053159;28;20472;-53
2021/05/08 09:09:56;;;;;;;10.63;3.63;;;;;;;22.04;26.10;101224.91;5056561;28;20456;-54
2021/05/08 09:12:26;;;;;;;28.03;14.03;;;;;;;23.22;24.83;101218.66;5055001;28;20917;-53
2021/05/08 09:14:54;;;;;;;7.27;2.80;;;;;;;23.96;24.63;101224.47;5057003;28;20455;-53
2021/05/08 09:17:24;;;;;;;11.93;3.03;;;;;;;24.63;23.34;101218.69;5048928;28;20541;-52
2021/05/08 09:19:56;;;;;;;13.80;4.30;;;;;;;23.14;26.00;101225.72;5056504;28;20459;-52
2021/05/08 09:22:33;;;;;;;23.80;8.40;;;;;;;22.46;26.08;101219.66;5067838;28;20525;-51
2021/05/08 09:25:03;;;;;;;13.93;4.17;;;;;;;23.08;25.01;101220.47;5060628;28;20497;-51
2021/05/08 09:27:39;;;;;;;13.90;3.90;;;;;;;22.58;24.87;101220.56;5055259;28;20471;-52
2021/05/08 09:30:14;;;;;;;18.07;8.43;;;;;;;23.02;24.54;101227.50;5053552;28;20493;-54
2021/05/08 09:32:42;;;;;;;10.57;3.50;;;;;;;23.19;25.07;101221.31;5055174;28;20483;-53
2021/05/08 09:35:13;;;;;;;6.47;2.43;;;;;;;23.77;24.46;101214.06;5056563;28;20557;-54
2021/05/08 09:37:40;;;;;;;15.10;6.00;;;;;;;23.26;25.35;101214.28;5054966;28;21048;-51
2021/05/08 09:40:15;;;;;;;23.80;8.13;;;;;;;23.26;24.90;101209.91;5053767;28;20546;-51
2021/05/08 09:42:46;;;;;;;11.57;4.80;;;;;;;22.19;25.80;101207.44;5055015;28;20482;-52
2021/05/08 09:45:14;;;;;;;9.47;2.37;;;;;;;21.38;27.23;101202.81;5056483;28;20823;-50
2021/05/08 09:47:42;;;;;;;17.03;4.63;;;;;;;23.54;24.85;101198.41;5054666;28;20472;-54
2021/05/08 09:50:10;;;;;;;14.27;5.30;;;;;;;22.99;25.30;101190.69;5056190;28;20769;-52
2021/05/08 09:52:49;;;;;;;14.97;7.63;;;;;;;23.73;24.73;101192.13;5055010;28;20566;-49
2021/05/08 09:55:17;;;;;;;8.63;3.60;;;;;;;23.24;25.12;101189.72;5054663;28;20751;-51
2021/05/08 09:58:04;;;;;;;14.03;4.67;;;;;;;24.15;23.46;101183.09;5052252;28;20480;-53
2021/05/08 10:00:35;;;;;;;15.27;8.03;;;;;;;24.30;23.78;101187.34;5053923;28;20455;-50
2021/05/08 10:03:08;;;;;;;6.20;2.40;;;;;;;24.61;24.08;101184.41;5054765;28;20481;-53
2021/05/08 10:05:36;;;;;;;23.87;10.73;;;;;;;24.35;23.89;101188.19;5056098;28;20491;-50
2021/05/08 10:08:04;;;;;;;10.93;3.67;;;;;;;24.09;23.94;101175.25;5052848;28;20468;-51
2021/05/08 10:10:32;;;;;;;13.00;5.50;;;;;;;24.42;24.06;101173.19;5055603;28;20513;-52
2021/05/08 10:12:59;;;;;;;10.33;4.90;;;;;;;23.06;25.88;101186.28;5054766;28;20925;-51
2021/05/08 10:15:26;;;;;;;9.90;3.33;;;;;;;22.99;25.39;101180.19;5055611;28;20931;-54
2021/05/08 10:17:53;;;;;;;7.07;3.10;;;;;;;23.30;24.97;101172.19;5054535;28;20473;-50
2021/05/08 10:20:21;;;;;;;12.20;4.50;;;;;;;23.27;24.75;101173.94;5055567;28;20459;-49
2021/05/08 10:22:50;;;;;;;13.30;3.57;;;;;;;23.17;24.14;101178.38;5051516;28;20492;-53
2021/05/08 10:25:18;;;;;;;7.13;3.30;;;;;;;23.32;24.96;101177.44;5055711;28;20569;-53
2021/05/08 10:27:46;;;;;;;12.33;4.83;;;;;;;23.93;24.06;101177.09;5049986;28;20472;-51
2021/05/08 10:30:15;;;;;;;9.93;3.20;;;;;;;24.09;24.03;101170.81;5051577;28;20539;-49
2021/05/08 10:32:45;;;;;;;7.03;3.00;;;;;;;24.07;24.35;101172.63;5054180;28;20475;-54
2021/05/08 10:35:14;;;;;;;14.13;5.27;;;;;;;24.80;22.03;101157.84;5055536;28;20459;-52
2021/05/08 10:38:16;;;;;;;16.47;6.10;;;;;;;23.20;23.71;101167.81;5054064;28;20519;-53
2021/05/08 10:40:56;;;;;;;10.50;4.33;;;;;;;23.66;23.24;101165.84;5054607;28;20491;-54
2021/05/08 10:43:40;;;;;;;28.20;14.00;;;;;;;25.16;21.45;101160.06;5054625;28;20573;-53
2021/05/08 10:46:08;;;;;;;16.63;7.23;;;;;;;24.91;22.23;101157.78;5051538;28;20543;-54
2021/05/08 10:48:35;;;;;;;16.70;8.60;;;;;;;23.83;24.03;101161.34;5055254;28;20518;-50
2021/05/08 10:51:02;;;;;;;11.97;4.03;;;;;;;23.66;23.76;101152.66;5054198;28;20467;-49
2021/05/08 10:53:41;;;;;;;16.60;8.57;;;;;;;24.30;23.36;101147.78;5055410;28;20520;-47
2021/05/08 10:56:25;;;;;;;24.93;9.70;;;;;;;23.94;23.77;101152.50;5054422;28;20459;-50
2021/05/08 10:59:03;;;;;;;8.30;3.47;;;;;;;23.02;24.30;101147.72;5055483;28;20460;-47
2021/05/08 11:01:41;;;;;;;9.17;2.90;;;;;;;23.66;23.01;101145.66;5054038;28;20487;-49
2021/05/08 11:04:08;;;;;;;9.63;3.40;;;;;;;24.19;23.22;101149.69;5055329;28;20933;-47
2021/05/08 11:06:34;;;;;;;9.17;3.57;;;;;;;24.51;22.78;101145.88;5053116;28;20560;-48
2021/05/08 11:09:01;;;;;;;13.67;4.80;;;;;;;24.75;22.11;101151.72;5055288;28;20452;-47
2021/05/08 11:11:48;;;;;;;8.70;3.43;;;;;;;24.70;21.55;101143.88;5053826;28;20562;-51
2021/05/08 11:14:15;;;;;;;9.30;3.80;;;;;;;24.01;22.33;101135.75;5055137;28;20499;-48
2021/05/08 11:16:55;;;;;;;6.73;3.23;;;;;;;24.00;21.94;101134.84;5054001;28;20484;-48
2021/05/08 11:19:23;;;;;;;11.60;4.60;;;;;;;24.25;21.80;101136.44;5055220;28;20461;-49
2021/05/08 11:22:03;;;;;;;8.23;3.50;;;;;;;24.62;20.96;101136.03;5053138;28;20931;-51